DLH651 UAAA-EDDF
Flight info
| Callsign | DLH651 |
|---|---|
| Flight time | N/A |
| Altitude | 36000 |
| Route | EKLAT1B EKLAT Z370 TOMGO M610 ARBOL Z621 GENDI N147 OTBOR/N0482F360 A480 TIMGA B476 METKA/N0480F380 L88 RASAM N199 EDATA M11 REBLO UR317 TBN UW71 CRM UL746 ODERO/N0468F400 DCT OPT DCT TEGRI DCT GAZDA DCT ARSIN DCT SITNI DCT SUBEN DCT AKINI T161 DEBHI DEBHI1C |
| Aircraft | A343/H-SDE2E3FGHIJ4J5M1RWXY/LB1D1 |
Departure
| Time | 2026-05-08 04:57 |
|---|---|
| Airport | Almaty International Airport (UAAA) |
Arrival
| Time | N/A |
|---|---|
| Airport | Frankfurt Main Airport (EDDF) |
| Time | Latitude | Longitude | Altitude | Speed | Heading |
|---|---|---|---|---|---|
| 2026-05-08 04:30 | 43.35034 | 77.01257 | 2233 ft | 0 kts | 246° |
| 2026-05-08 04:46 | 43.35034 | 77.01258 | 2205 ft | 1 kts | 246° |
| 2026-05-08 04:47 | 43.35044 | 77.01288 | 2232 ft | 4 kts | 244° |
| 2026-05-08 04:47 | 43.35056 | 77.01321 | 2231 ft | 4 kts | 243° |
| 2026-05-08 04:47 | 43.35067 | 77.01347 | 2232 ft | 4 kts | 224° |
| 2026-05-08 04:47 | 43.35089 | 77.01363 | 2226 ft | 4 kts | 182° |
| 2026-05-08 04:48 | 43.35114 | 77.01358 | 2232 ft | 3 kts | 157° |
| 2026-05-08 04:48 | 43.35116 | 77.01356 | 2232 ft | 0 kts | 156° |
| 2026-05-08 04:52 | 43.35116 | 77.01357 | 2232 ft | 1 kts | 156° |
| 2026-05-08 04:52 | 43.35094 | 77.01369 | 2228 ft | 7 kts | 156° |
| 2026-05-08 04:52 | 43.35026 | 77.01410 | 2229 ft | 13 kts | 156° |
| 2026-05-08 04:53 | 43.34943 | 77.01459 | 2232 ft | 13 kts | 156° |
| 2026-05-08 04:53 | 43.34864 | 77.01505 | 2229 ft | 11 kts | 164° |
| 2026-05-08 04:53 | 43.34806 | 77.01492 | 2225 ft | 8 kts | 197° |
| 2026-05-08 04:53 | 43.34753 | 77.01466 | 2228 ft | 10 kts | 200° |
| 2026-05-08 04:54 | 43.34673 | 77.01448 | 2230 ft | 13 kts | 166° |
| 2026-05-08 04:54 | 43.34572 | 77.01472 | 2229 ft | 16 kts | 161° |
| 2026-05-08 04:54 | 43.34468 | 77.01538 | 2229 ft | 16 kts | 155° |
| 2026-05-08 04:54 | 43.34368 | 77.01600 | 2231 ft | 16 kts | 155° |
| 2026-05-08 04:55 | 43.34260 | 77.01668 | 2231 ft | 19 kts | 155° |
| 2026-05-08 04:55 | 43.34156 | 77.01768 | 2230 ft | 12 kts | 114° |
| 2026-05-08 04:55 | 43.34158 | 77.01801 | 2227 ft | 8 kts | 76° |
| 2026-05-08 04:55 | 43.34192 | 77.01882 | 2226 ft | 0 kts | 55° |
| 2026-05-08 04:56 | 43.34239 | 77.01976 | 2224 ft | 27 kts | 56° |
| 2026-05-08 04:56 | 43.34439 | 77.02384 | 2233 ft | 75 kts | 56° |
| 2026-05-08 04:56 | 43.34816 | 77.03142 | 2227 ft | 116 kts | 56° |
| 2026-05-08 04:56 | 43.35336 | 77.04190 | 2229 ft | 149 kts | 56° |
| 2026-05-08 04:57 | 43.35958 | 77.05447 | 2431 ft | 159 kts | 54° |
| 2026-05-08 04:57 | 43.36561 | 77.06657 | 2925 ft | 154 kts | 54° |
| 2026-05-08 04:57 | 43.37201 | 77.07918 | 3147 ft | 170 kts | 54° |
| 2026-05-08 04:57 | 43.37924 | 77.09307 | 3386 ft | 182 kts | 53° |
| 2026-05-08 04:58 | 43.38672 | 77.10722 | 3775 ft | 190 kts | 53° |
| 2026-05-08 04:58 | 43.39204 | 77.11731 | 4011 ft | 196 kts | 54° |
| 2026-05-08 04:58 | 43.40074 | 77.13213 | 4463 ft | 202 kts | 43° |
| 2026-05-08 04:58 | 43.41261 | 77.14222 | 4889 ft | 203 kts | 16° |
| 2026-05-08 04:59 | 43.42680 | 77.14356 | 5293 ft | 212 kts | 351° |
| 2026-05-08 04:59 | 43.44197 | 77.13908 | 5469 ft | 236 kts | 344° |
| 2026-05-08 04:59 | 43.46424 | 77.13066 | 5856 ft | 262 kts | 344° |
| 2026-05-08 04:59 | 43.47630 | 77.12613 | 6221 ft | 269 kts | 344° |
| 2026-05-08 05:00 | 43.49456 | 77.11937 | 6836 ft | 275 kts | 344° |
| 2026-05-08 05:00 | 43.51301 | 77.11207 | 7497 ft | 278 kts | 338° |
| 2026-05-08 05:00 | 43.52961 | 77.09857 | 8161 ft | 280 kts | 315° |
| 2026-05-08 05:00 | 43.54039 | 77.07640 | 8828 ft | 281 kts | 288° |
| 2026-05-08 05:01 | 43.54394 | 77.04990 | 9565 ft | 283 kts | 274° |
| 2026-05-08 05:01 | 43.54500 | 77.02271 | 10240 ft | 286 kts | 272° |
| 2026-05-08 05:01 | 43.54581 | 76.99477 | 10601 ft | 301 kts | 272° |
| 2026-05-08 05:01 | 43.54550 | 76.96522 | 10868 ft | 317 kts | 262° |
| 2026-05-08 05:02 | 43.53866 | 76.93570 | 11122 ft | 333 kts | 242° |
| 2026-05-08 05:02 | 43.52615 | 76.90810 | 11379 ft | 347 kts | 236° |
| 2026-05-08 05:02 | 43.51235 | 76.88052 | 11633 ft | 361 kts | 236° |
| 2026-05-08 05:02 | 43.49770 | 76.85137 | 12022 ft | 369 kts | 236° |
| 2026-05-08 05:03 | 43.48329 | 76.82250 | 12564 ft | 372 kts | 236° |
| 2026-05-08 05:03 | 43.46863 | 76.79297 | 13193 ft | 374 kts | 237° |
| 2026-05-08 05:03 | 43.45393 | 76.76332 | 13815 ft | 376 kts | 237° |
| 2026-05-08 05:03 | 43.43911 | 76.73340 | 14308 ft | 380 kts | 237° |
| 2026-05-08 05:04 | 43.42393 | 76.70276 | 14828 ft | 384 kts | 237° |
| 2026-05-08 05:04 | 43.40899 | 76.67263 | 15338 ft | 388 kts | 237° |
| 2026-05-08 05:04 | 43.39372 | 76.64185 | 15871 ft | 391 kts | 237° |
| 2026-05-08 05:04 | 43.37842 | 76.61101 | 16374 ft | 395 kts | 237° |
| 2026-05-08 05:05 | 43.36278 | 76.57946 | 16905 ft | 398 kts | 237° |
| 2026-05-08 05:05 | 43.34708 | 76.54790 | 17441 ft | 402 kts | 237° |
| 2026-05-08 05:05 | 43.33123 | 76.51606 | 17954 ft | 405 kts | 237° |
| 2026-05-08 05:05 | 43.31597 | 76.48339 | 18450 ft | 407 kts | 243° |
| 2026-05-08 05:06 | 43.30486 | 76.44761 | 18894 ft | 409 kts | 255° |
| 2026-05-08 05:06 | 43.29976 | 76.40920 | 19327 ft | 411 kts | 264° |
| 2026-05-08 05:06 | 43.29775 | 76.36997 | 19794 ft | 413 kts | 268° |
| 2026-05-08 05:06 | 43.29732 | 76.33038 | 20231 ft | 416 kts | 270° |
| 2026-05-08 05:07 | 43.29765 | 76.29063 | 20678 ft | 418 kts | 271° |
| 2026-05-08 05:07 | 43.29820 | 76.25053 | 21123 ft | 421 kts | 271° |
| 2026-05-08 05:07 | 43.29869 | 76.21026 | 21553 ft | 424 kts | 271° |
| 2026-05-08 05:07 | 43.29902 | 76.16964 | 21983 ft | 427 kts | 271° |
| 2026-05-08 05:08 | 43.29921 | 76.12884 | 22410 ft | 429 kts | 271° |
| 2026-05-08 05:08 | 43.29927 | 76.08779 | 22838 ft | 431 kts | 271° |
| 2026-05-08 05:08 | 43.29926 | 76.04648 | 23249 ft | 434 kts | 271° |
| 2026-05-08 05:08 | 43.29920 | 76.00496 | 23643 ft | 436 kts | 271° |
| 2026-05-08 05:09 | 43.29912 | 75.96323 | 23984 ft | 439 kts | 271° |
| 2026-05-08 05:09 | 43.29903 | 75.92121 | 24305 ft | 441 kts | 271° |
| 2026-05-08 05:09 | 43.29893 | 75.87901 | 24644 ft | 443 kts | 270° |
| 2026-05-08 05:09 | 43.29883 | 75.83715 | 24969 ft | 445 kts | 270° |
| 2026-05-08 05:10 | 43.29871 | 75.79403 | 25298 ft | 447 kts | 270° |
| 2026-05-08 05:10 | 43.29842 | 75.70893 | 25963 ft | 450 kts | 270° |
| 2026-05-08 05:10 | 43.29825 | 75.66584 | 26250 ft | 453 kts | 270° |
| 2026-05-08 05:11 | 43.29806 | 75.62255 | 26546 ft | 455 kts | 270° |
| 2026-05-08 05:11 | 43.29786 | 75.57908 | 26833 ft | 457 kts | 270° |
| 2026-05-08 05:11 | 43.29764 | 75.53538 | 27114 ft | 459 kts | 270° |
| 2026-05-08 05:11 | 43.29740 | 75.49153 | 27397 ft | 461 kts | 270° |
| 2026-05-08 05:12 | 43.29715 | 75.44750 | 27690 ft | 462 kts | 270° |
| 2026-05-08 05:12 | 43.29687 | 75.40334 | 27973 ft | 463 kts | 270° |
| 2026-05-08 05:12 | 43.29658 | 75.35902 | 28205 ft | 466 kts | 270° |
| 2026-05-08 05:12 | 43.29626 | 75.31449 | 28466 ft | 468 kts | 270° |
| 2026-05-08 05:13 | 43.29593 | 75.26974 | 28700 ft | 470 kts | 270° |
| 2026-05-08 05:13 | 43.29559 | 75.22482 | 28983 ft | 470 kts | 270° |
| 2026-05-08 05:13 | 43.29523 | 75.17995 | 29342 ft | 470 kts | 270° |
| 2026-05-08 05:13 | 43.29485 | 75.13515 | 29721 ft | 469 kts | 270° |
| 2026-05-08 05:14 | 43.29444 | 75.09048 | 30070 ft | 468 kts | 270° |
| 2026-05-08 05:14 | 43.29402 | 75.04581 | 30333 ft | 468 kts | 270° |
| 2026-05-08 05:14 | 43.29359 | 75.00111 | 30587 ft | 468 kts | 270° |
| 2026-05-08 05:14 | 43.29313 | 74.95646 | 30873 ft | 467 kts | 270° |
| 2026-05-08 05:15 | 43.29266 | 74.91191 | 31174 ft | 466 kts | 270° |
| 2026-05-08 05:15 | 43.29218 | 74.86752 | 31467 ft | 465 kts | 270° |
| 2026-05-08 05:15 | 43.29168 | 74.82324 | 31744 ft | 464 kts | 270° |
| 2026-05-08 05:15 | 43.29116 | 74.77905 | 32028 ft | 463 kts | 270° |
| 2026-05-08 05:16 | 43.29063 | 74.73485 | 32311 ft | 462 kts | 270° |
| 2026-05-08 05:16 | 43.29008 | 74.69086 | 32581 ft | 461 kts | 270° |
| 2026-05-08 05:16 | 43.28952 | 74.64686 | 32851 ft | 460 kts | 269° |
| 2026-05-08 05:16 | 43.28894 | 74.60302 | 33121 ft | 459 kts | 269° |
| 2026-05-08 05:17 | 43.28834 | 74.55927 | 33383 ft | 458 kts | 269° |
| 2026-05-08 05:17 | 43.28773 | 74.51552 | 33623 ft | 458 kts | 269° |
| 2026-05-08 05:17 | 43.28711 | 74.47192 | 33864 ft | 457 kts | 269° |
| 2026-05-08 05:17 | 43.28646 | 74.42827 | 34096 ft | 456 kts | 269° |
| 2026-05-08 05:18 | 43.28581 | 74.38483 | 34294 ft | 455 kts | 269° |
| 2026-05-08 05:18 | 43.28514 | 74.34140 | 34497 ft | 455 kts | 269° |
| 2026-05-08 05:18 | 43.28447 | 74.29866 | 34679 ft | 454 kts | 269° |
| 2026-05-08 05:18 | 43.28376 | 74.25534 | 34862 ft | 454 kts | 269° |
| 2026-05-08 05:19 | 43.28305 | 74.21210 | 35039 ft | 453 kts | 269° |
| 2026-05-08 05:19 | 43.28232 | 74.16893 | 35218 ft | 453 kts | 269° |
| 2026-05-08 05:19 | 43.28157 | 74.12575 | 35390 ft | 452 kts | 269° |
| 2026-05-08 05:19 | 43.28080 | 74.08264 | 35573 ft | 452 kts | 269° |
| 2026-05-08 05:20 | 43.28002 | 74.03960 | 35722 ft | 451 kts | 269° |
| 2026-05-08 05:20 | 43.27922 | 73.99660 | 35880 ft | 451 kts | 269° |
| 2026-05-08 05:20 | 43.27841 | 73.95357 | 35999 ft | 451 kts | 269° |
| 2026-05-08 05:21 | 43.27674 | 73.86708 | 36008 ft | 454 kts | 269° |
| 2026-05-08 05:21 | 43.27499 | 73.78096 | 36011 ft | 450 kts | 269° |
| 2026-05-08 05:22 | 43.27320 | 73.69522 | 36010 ft | 450 kts | 269° |
| 2026-05-08 05:22 | 43.27134 | 73.60939 | 36009 ft | 450 kts | 269° |
| 2026-05-08 05:23 | 43.26941 | 73.52354 | 36007 ft | 450 kts | 269° |
| 2026-05-08 05:23 | 43.26742 | 73.43763 | 36010 ft | 450 kts | 269° |
| 2026-05-08 05:24 | 43.26537 | 73.35179 | 36007 ft | 450 kts | 268° |
| 2026-05-08 05:24 | 43.26325 | 73.26592 | 36006 ft | 450 kts | 268° |
| 2026-05-08 05:25 | 43.26107 | 73.18014 | 36010 ft | 450 kts | 268° |
| 2026-05-08 05:25 | 43.25882 | 73.09426 | 36010 ft | 450 kts | 268° |
| 2026-05-08 05:26 | 43.25651 | 73.00856 | 36009 ft | 450 kts | 268° |
| 2026-05-08 05:26 | 43.25414 | 72.92274 | 36004 ft | 450 kts | 268° |
| 2026-05-08 05:27 | 43.25170 | 72.83704 | 36004 ft | 449 kts | 268° |
| 2026-05-08 05:27 | 43.24920 | 72.75145 | 36006 ft | 449 kts | 268° |
| 2026-05-08 05:28 | 43.24664 | 72.66584 | 36001 ft | 449 kts | 268° |
| 2026-05-08 05:28 | 43.24402 | 72.58027 | 36000 ft | 449 kts | 268° |
| 2026-05-08 05:29 | 43.24134 | 72.49492 | 36006 ft | 447 kts | 268° |
| 2026-05-08 05:29 | 43.23860 | 72.40980 | 36006 ft | 447 kts | 268° |
| 2026-05-08 05:30 | 43.23582 | 72.32527 | 36005 ft | 447 kts | 267° |
| 2026-05-08 05:30 | 43.23296 | 72.24027 | 36001 ft | 446 kts | 267° |
| 2026-05-08 05:31 | 43.23004 | 72.15542 | 36002 ft | 445 kts | 267° |
| 2026-05-08 05:31 | 43.22707 | 72.07063 | 36004 ft | 445 kts | 267° |
| 2026-05-08 05:32 | 43.22402 | 71.98583 | 36004 ft | 445 kts | 267° |
| 2026-05-08 05:32 | 43.22092 | 71.90109 | 36007 ft | 445 kts | 267° |
| 2026-05-08 05:33 | 43.21776 | 71.81641 | 36012 ft | 444 kts | 267° |
| 2026-05-08 05:33 | 43.21454 | 71.73190 | 36004 ft | 444 kts | 267° |
| 2026-05-08 05:34 | 43.21126 | 71.64737 | 36004 ft | 444 kts | 267° |
| 2026-05-08 05:34 | 43.20791 | 71.56292 | 36006 ft | 444 kts | 266° |
| 2026-05-08 05:35 | 43.20451 | 71.47854 | 36006 ft | 443 kts | 266° |
| 2026-05-08 05:35 | 43.20106 | 71.39437 | 36006 ft | 442 kts | 266° |
| 2026-05-08 05:36 | 43.19754 | 71.31028 | 36008 ft | 442 kts | 266° |
| 2026-05-08 05:36 | 43.19397 | 71.22618 | 36006 ft | 442 kts | 266° |
| 2026-05-08 05:37 | 43.19033 | 71.14208 | 36010 ft | 442 kts | 266° |
| 2026-05-08 05:37 | 43.18663 | 71.05800 | 36006 ft | 442 kts | 266° |
| 2026-05-08 05:38 | 43.18287 | 70.97393 | 36007 ft | 442 kts | 266° |
| 2026-05-08 05:38 | 43.17905 | 70.88993 | 36006 ft | 442 kts | 266° |
| 2026-05-08 05:39 | 43.17517 | 70.80593 | 36006 ft | 441 kts | 266° |
| 2026-05-08 05:39 | 43.17123 | 70.72217 | 36004 ft | 440 kts | 266° |
| 2026-05-08 05:40 | 43.16724 | 70.63847 | 36007 ft | 441 kts | 266° |
| 2026-05-08 05:40 | 43.16320 | 70.55476 | 36007 ft | 441 kts | 266° |
| 2026-05-08 05:41 | 43.15908 | 70.47104 | 36005 ft | 440 kts | 265° |
| 2026-05-08 05:41 | 43.15493 | 70.38804 | 36003 ft | 440 kts | 265° |
| 2026-05-08 05:42 | 43.15070 | 70.30442 | 36012 ft | 440 kts | 265° |
| 2026-05-08 05:42 | 43.14640 | 70.22082 | 36013 ft | 440 kts | 265° |
| 2026-05-08 05:43 | 43.14206 | 70.13730 | 36016 ft | 439 kts | 265° |
| 2026-05-08 05:43 | 43.13765 | 70.05383 | 36019 ft | 439 kts | 265° |
| 2026-05-08 05:44 | 43.13318 | 69.97045 | 36018 ft | 439 kts | 265° |
| 2026-05-08 05:44 | 43.12865 | 69.88702 | 36015 ft | 439 kts | 265° |
| 2026-05-08 05:45 | 43.12406 | 69.80366 | 36016 ft | 439 kts | 265° |
| 2026-05-08 05:45 | 43.11942 | 69.72039 | 36007 ft | 439 kts | 265° |
| 2026-05-08 05:46 | 43.11472 | 69.63718 | 35996 ft | 438 kts | 265° |
| 2026-05-08 05:46 | 43.10996 | 69.55397 | 35996 ft | 439 kts | 265° |
| 2026-05-08 05:47 | 43.10596 | 69.48485 | 35987 ft | 439 kts | 265° |
| 2026-05-08 05:47 | 43.10109 | 69.40161 | 35988 ft | 439 kts | 265° |
| 2026-05-08 05:48 | 43.09616 | 69.31847 | 35982 ft | 439 kts | 265° |
| 2026-05-08 05:48 | 43.09116 | 69.23535 | 35968 ft | 439 kts | 265° |
| 2026-05-08 05:49 | 43.08611 | 69.15222 | 35971 ft | 438 kts | 265° |
| 2026-05-08 05:49 | 43.08100 | 69.06915 | 35963 ft | 438 kts | 265° |
| 2026-05-08 05:50 | 43.07584 | 68.98619 | 35963 ft | 438 kts | 265° |
| 2026-05-08 05:50 | 43.07061 | 68.90326 | 35959 ft | 438 kts | 265° |
| 2026-05-08 05:51 | 43.06533 | 68.82028 | 35958 ft | 438 kts | 265° |
| 2026-05-08 05:51 | 43.05998 | 68.73738 | 35956 ft | 437 kts | 265° |
| 2026-05-08 05:52 | 43.05459 | 68.65466 | 35955 ft | 437 kts | 265° |
| 2026-05-08 05:52 | 43.04914 | 68.57191 | 35957 ft | 437 kts | 264° |
| 2026-05-08 05:53 | 43.04363 | 68.48923 | 35957 ft | 437 kts | 264° |
| 2026-05-08 05:53 | 43.03806 | 68.40659 | 35951 ft | 437 kts | 264° |
| 2026-05-08 05:54 | 43.03244 | 68.32399 | 35952 ft | 436 kts | 264° |
| 2026-05-08 05:54 | 43.02676 | 68.24153 | 35952 ft | 436 kts | 264° |
| 2026-05-08 05:55 | 43.02103 | 68.15906 | 35948 ft | 436 kts | 264° |
| 2026-05-08 05:55 | 43.01526 | 68.07705 | 35953 ft | 436 kts | 264° |
| 2026-05-08 05:56 | 43.00937 | 67.99414 | 35954 ft | 435 kts | 264° |
| 2026-05-08 05:56 | 43.00351 | 67.91247 | 35952 ft | 435 kts | 264° |
| 2026-05-08 05:57 | 42.99755 | 67.83025 | 35952 ft | 435 kts | 264° |
| 2026-05-08 05:57 | 42.99154 | 67.74812 | 35950 ft | 435 kts | 264° |
| 2026-05-08 05:58 | 42.98547 | 67.66595 | 35948 ft | 435 kts | 264° |
| 2026-05-08 05:58 | 42.97934 | 67.58383 | 35950 ft | 435 kts | 264° |
| 2026-05-08 05:59 | 42.97314 | 67.50164 | 35944 ft | 435 kts | 264° |
| 2026-05-08 05:59 | 42.96689 | 67.41957 | 35944 ft | 435 kts | 264° |
| 2026-05-08 06:00 | 42.96058 | 67.33746 | 35942 ft | 435 kts | 264° |
| 2026-05-08 06:00 | 42.95421 | 67.25545 | 35944 ft | 434 kts | 264° |
| 2026-05-08 06:01 | 42.94781 | 67.17359 | 35944 ft | 434 kts | 264° |
| 2026-05-08 06:01 | 42.94133 | 67.09173 | 35941 ft | 434 kts | 264° |
| 2026-05-08 06:02 | 42.93480 | 67.00984 | 35941 ft | 434 kts | 264° |
| 2026-05-08 06:02 | 42.92822 | 66.92807 | 35941 ft | 432 kts | 264° |
| 2026-05-08 06:03 | 42.92161 | 66.84676 | 35942 ft | 431 kts | 264° |
| 2026-05-08 06:03 | 42.91495 | 66.76548 | 35939 ft | 431 kts | 264° |
| 2026-05-08 06:04 | 42.90828 | 66.68476 | 35937 ft | 431 kts | 264° |
| 2026-05-08 06:04 | 42.90150 | 66.60351 | 35940 ft | 431 kts | 264° |
| 2026-05-08 06:05 | 42.89470 | 66.52263 | 35943 ft | 429 kts | 264° |
| 2026-05-08 06:05 | 42.88785 | 66.44189 | 35947 ft | 428 kts | 263° |
| 2026-05-08 06:06 | 42.88095 | 66.36122 | 35946 ft | 428 kts | 263° |
| 2026-05-08 06:06 | 42.87399 | 66.28063 | 35952 ft | 428 kts | 263° |
| 2026-05-08 06:07 | 42.86700 | 66.20025 | 35961 ft | 426 kts | 263° |
| 2026-05-08 06:07 | 42.85992 | 66.12015 | 35957 ft | 425 kts | 262° |
| 2026-05-08 06:08 | 42.84694 | 66.04156 | 35965 ft | 426 kts | 256° |
| 2026-05-08 06:08 | 42.83113 | 65.96381 | 35965 ft | 426 kts | 255° |
| 2026-05-08 06:09 | 42.81480 | 65.88634 | 35972 ft | 425 kts | 255° |
| 2026-05-08 06:09 | 42.79851 | 65.80924 | 35974 ft | 423 kts | 255° |
| 2026-05-08 06:10 | 42.78233 | 65.73228 | 35981 ft | 423 kts | 255° |
| 2026-05-08 06:10 | 42.76613 | 65.65539 | 35985 ft | 423 kts | 255° |
| 2026-05-08 06:11 | 42.74984 | 65.57856 | 35978 ft | 422 kts | 255° |
| 2026-05-08 06:11 | 42.73358 | 65.50215 | 35991 ft | 419 kts | 255° |
| 2026-05-08 06:12 | 42.71734 | 65.42604 | 35989 ft | 419 kts | 255° |
| 2026-05-08 06:12 | 42.70105 | 65.34991 | 35993 ft | 419 kts | 255° |
| 2026-05-08 06:13 | 42.68482 | 65.27435 | 36001 ft | 419 kts | 255° |
| 2026-05-08 06:13 | 42.66846 | 65.19849 | 35996 ft | 417 kts | 255° |
| 2026-05-08 06:14 | 42.65213 | 65.12301 | 36004 ft | 417 kts | 255° |
| 2026-05-08 06:14 | 42.63573 | 65.04750 | 36004 ft | 417 kts | 255° |
| 2026-05-08 06:15 | 42.61928 | 64.97202 | 36010 ft | 417 kts | 255° |
| 2026-05-08 06:15 | 42.60282 | 64.89672 | 36010 ft | 415 kts | 254° |
| 2026-05-08 06:16 | 42.58636 | 64.82176 | 36018 ft | 414 kts | 254° |
| 2026-05-08 06:16 | 42.56988 | 64.74694 | 36019 ft | 414 kts | 254° |
| 2026-05-08 06:17 | 42.54505 | 64.63464 | 36027 ft | 414 kts | 254° |
| 2026-05-08 06:17 | 42.52847 | 64.56005 | 36024 ft | 412 kts | 254° |
| 2026-05-08 06:18 | 42.51193 | 64.48585 | 36025 ft | 411 kts | 254° |
| 2026-05-08 06:18 | 42.49534 | 64.41167 | 36026 ft | 411 kts | 254° |
| 2026-05-08 06:19 | 42.47871 | 64.33757 | 36031 ft | 411 kts | 254° |
| 2026-05-08 06:19 | 42.46204 | 64.26352 | 36028 ft | 411 kts | 254° |
| 2026-05-08 06:20 | 42.44535 | 64.18955 | 36034 ft | 411 kts | 254° |
| 2026-05-08 06:20 | 42.42875 | 64.11553 | 36036 ft | 411 kts | 254° |
| 2026-05-08 06:21 | 42.41213 | 64.04150 | 36033 ft | 411 kts | 254° |
| 2026-05-08 06:21 | 42.39541 | 63.96761 | 36032 ft | 410 kts | 254° |
| 2026-05-08 06:22 | 42.37863 | 63.89466 | 36036 ft | 408 kts | 254° |
| 2026-05-08 06:22 | 42.36172 | 63.82149 | 36037 ft | 408 kts | 254° |
| 2026-05-08 06:23 | 42.34477 | 63.74833 | 36040 ft | 408 kts | 254° |
| 2026-05-08 06:23 | 42.32781 | 63.67525 | 36049 ft | 408 kts | 254° |
| 2026-05-08 06:24 | 42.31084 | 63.60240 | 36043 ft | 405 kts | 254° |
| 2026-05-08 06:24 | 42.29390 | 63.52991 | 36042 ft | 405 kts | 253° |
| 2026-05-08 06:25 | 42.27693 | 63.45750 | 36042 ft | 404 kts | 253° |
| 2026-05-08 06:25 | 42.25990 | 63.38510 | 36044 ft | 404 kts | 253° |
| 2026-05-08 06:26 | 42.24286 | 63.31288 | 36045 ft | 402 kts | 253° |
| 2026-05-08 06:26 | 42.22589 | 63.24118 | 36048 ft | 401 kts | 253° |
| 2026-05-08 06:27 | 42.20891 | 63.16964 | 36049 ft | 401 kts | 253° |
| 2026-05-08 06:27 | 42.19187 | 63.09811 | 36050 ft | 400 kts | 253° |
| 2026-05-08 06:28 | 42.17480 | 63.02665 | 36047 ft | 400 kts | 253° |
| 2026-05-08 06:28 | 42.15785 | 62.95571 | 36054 ft | 396 kts | 253° |
| 2026-05-08 06:29 | 42.14090 | 62.88508 | 36053 ft | 396 kts | 253° |
| 2026-05-08 06:29 | 42.12390 | 62.81450 | 36053 ft | 396 kts | 253° |
| 2026-05-08 06:30 | 42.10685 | 62.74396 | 36064 ft | 396 kts | 253° |
| 2026-05-08 06:30 | 42.08984 | 62.67367 | 36057 ft | 393 kts | 253° |
| 2026-05-08 06:31 | 42.07300 | 62.60420 | 36057 ft | 393 kts | 253° |
| 2026-05-08 06:31 | 42.05601 | 62.53438 | 36057 ft | 393 kts | 253° |
| 2026-05-08 06:32 | 42.03896 | 62.46455 | 36058 ft | 393 kts | 253° |
| 2026-05-08 06:32 | 42.02186 | 62.39479 | 36059 ft | 392 kts | 253° |
| 2026-05-08 06:33 | 42.00483 | 62.32549 | 36064 ft | 390 kts | 253° |
| 2026-05-08 06:33 | 41.98780 | 62.25638 | 36064 ft | 389 kts | 253° |
| 2026-05-08 06:34 | 41.97073 | 62.18730 | 36061 ft | 389 kts | 253° |
| 2026-05-08 06:34 | 41.95362 | 62.11829 | 36071 ft | 389 kts | 253° |
| 2026-05-08 06:35 | 41.93651 | 62.04955 | 36065 ft | 387 kts | 253° |
| 2026-05-08 06:35 | 41.91949 | 61.98115 | 36063 ft | 386 kts | 253° |
| 2026-05-08 06:36 | 41.90533 | 61.92427 | 36067 ft | 386 kts | 253° |
| 2026-05-08 06:36 | 41.88825 | 61.85594 | 36067 ft | 386 kts | 253° |
| 2026-05-08 06:37 | 41.87114 | 61.78767 | 36067 ft | 385 kts | 252° |
| 2026-05-08 06:37 | 41.85409 | 61.71980 | 36071 ft | 383 kts | 252° |
| 2026-05-08 06:38 | 41.83695 | 61.65205 | 36070 ft | 383 kts | 252° |
| 2026-05-08 06:38 | 41.81974 | 61.58438 | 36068 ft | 383 kts | 252° |
| 2026-05-08 06:39 | 41.80252 | 61.51678 | 36070 ft | 383 kts | 252° |
| 2026-05-08 06:39 | 41.78530 | 61.44930 | 36064 ft | 382 kts | 252° |
| 2026-05-08 06:40 | 41.76809 | 61.38206 | 36072 ft | 381 kts | 252° |
| 2026-05-08 06:40 | 41.75087 | 61.31499 | 36071 ft | 381 kts | 252° |
| 2026-05-08 06:41 | 41.73360 | 61.24787 | 36071 ft | 381 kts | 252° |
| 2026-05-08 06:41 | 41.71630 | 61.18087 | 36071 ft | 381 kts | 252° |
| 2026-05-08 06:42 | 41.69896 | 61.11385 | 36071 ft | 381 kts | 252° |
| 2026-05-08 06:42 | 41.68158 | 61.04690 | 36070 ft | 381 kts | 252° |
| 2026-05-08 06:43 | 41.66416 | 60.97995 | 36067 ft | 381 kts | 252° |
| 2026-05-08 06:43 | 41.64672 | 60.91313 | 36071 ft | 381 kts | 252° |
| 2026-05-08 06:44 | 41.62926 | 60.84642 | 36073 ft | 379 kts | 252° |
| 2026-05-08 06:44 | 41.61194 | 60.78041 | 36074 ft | 379 kts | 252° |
| 2026-05-08 06:45 | 41.59449 | 60.71411 | 36075 ft | 379 kts | 252° |
| 2026-05-08 06:45 | 41.57699 | 60.64777 | 36075 ft | 379 kts | 252° |
| 2026-05-08 06:46 | 41.56084 | 60.58090 | 36078 ft | 378 kts | 253° |
| 2026-05-08 06:46 | 41.54571 | 60.51387 | 36076 ft | 377 kts | 253° |
| 2026-05-08 06:47 | 41.53042 | 60.44700 | 36074 ft | 377 kts | 253° |
| 2026-05-08 06:47 | 41.51487 | 60.38024 | 36071 ft | 377 kts | 253° |
| 2026-05-08 06:48 | 41.49920 | 60.31359 | 36068 ft | 376 kts | 253° |
| 2026-05-08 06:48 | 41.48350 | 60.24705 | 36064 ft | 376 kts | 253° |
| 2026-05-08 06:49 | 41.46781 | 60.18062 | 36065 ft | 375 kts | 253° |
| 2026-05-08 06:49 | 41.45196 | 60.11435 | 36065 ft | 375 kts | 252° |
| 2026-05-08 06:50 | 41.43595 | 60.04808 | 36064 ft | 375 kts | 252° |
| 2026-05-08 06:50 | 41.41994 | 59.98189 | 36065 ft | 375 kts | 252° |
| 2026-05-08 06:51 | 41.40406 | 59.91630 | 36063 ft | 374 kts | 252° |
| 2026-05-08 06:51 | 41.38807 | 59.85040 | 36066 ft | 374 kts | 252° |
| 2026-05-08 06:52 | 41.37200 | 59.78440 | 36066 ft | 374 kts | 252° |
| 2026-05-08 06:52 | 41.35594 | 59.71858 | 36064 ft | 374 kts | 252° |
| 2026-05-08 06:53 | 41.34271 | 59.65178 | 36070 ft | 374 kts | 258° |
| 2026-05-08 06:53 | 41.33533 | 59.58331 | 36067 ft | 374 kts | 260° |
| 2026-05-08 06:54 | 41.32897 | 59.51471 | 36089 ft | 374 kts | 260° |
| 2026-05-08 06:54 | 41.32267 | 59.44592 | 36071 ft | 375 kts | 260° |
| 2026-05-08 06:55 | 41.31628 | 59.37759 | 36082 ft | 375 kts | 260° |
| 2026-05-08 06:55 | 41.30973 | 59.30878 | 36077 ft | 374 kts | 259° |
| 2026-05-08 06:56 | 41.30316 | 59.24025 | 36078 ft | 373 kts | 259° |
| 2026-05-08 06:56 | 41.29654 | 59.17174 | 36077 ft | 373 kts | 259° |
| 2026-05-08 06:57 | 41.28988 | 59.10332 | 36078 ft | 373 kts | 259° |
| 2026-05-08 06:57 | 41.28319 | 59.03489 | 36080 ft | 373 kts | 259° |
| 2026-05-08 06:58 | 41.27646 | 58.96645 | 36083 ft | 373 kts | 259° |
| 2026-05-08 06:58 | 41.26970 | 58.89816 | 36085 ft | 373 kts | 259° |
| 2026-05-08 06:59 | 41.26294 | 58.83034 | 36087 ft | 372 kts | 259° |
| 2026-05-08 06:59 | 41.25610 | 58.76205 | 36089 ft | 372 kts | 259° |
| 2026-05-08 07:00 | 41.24923 | 58.69387 | 36091 ft | 372 kts | 259° |
| 2026-05-08 07:00 | 41.24231 | 58.62568 | 36097 ft | 372 kts | 258° |
| 2026-05-08 07:01 | 41.23535 | 58.55744 | 36091 ft | 373 kts | 258° |
| 2026-05-08 07:01 | 41.22833 | 58.48911 | 36093 ft | 374 kts | 258° |
| 2026-05-08 07:02 | 41.22123 | 58.42046 | 36096 ft | 375 kts | 258° |
| 2026-05-08 07:02 | 41.21410 | 58.35185 | 36097 ft | 375 kts | 258° |
| 2026-05-08 07:03 | 41.20698 | 58.28369 | 36096 ft | 375 kts | 258° |
| 2026-05-08 07:03 | 41.19978 | 58.21516 | 36096 ft | 375 kts | 258° |
| 2026-05-08 07:04 | 41.19253 | 58.14655 | 36099 ft | 375 kts | 258° |
| 2026-05-08 07:04 | 41.18523 | 58.07801 | 36098 ft | 374 kts | 258° |
| 2026-05-08 07:05 | 41.17789 | 58.00955 | 36101 ft | 374 kts | 258° |
| 2026-05-08 07:05 | 41.17059 | 57.94147 | 36101 ft | 374 kts | 258° |
| 2026-05-08 07:06 | 41.16320 | 57.87303 | 36101 ft | 374 kts | 258° |
| 2026-05-08 07:06 | 41.15577 | 57.80461 | 36101 ft | 374 kts | 257° |
| 2026-05-08 07:07 | 41.14829 | 57.73620 | 36107 ft | 374 kts | 257° |
| 2026-05-08 07:07 | 41.14077 | 57.66789 | 36107 ft | 374 kts | 257° |
| 2026-05-08 07:08 | 41.13322 | 57.59955 | 36120 ft | 374 kts | 257° |
| 2026-05-08 07:08 | 41.12561 | 57.53111 | 36116 ft | 375 kts | 257° |
| 2026-05-08 07:09 | 41.11795 | 57.46259 | 36109 ft | 376 kts | 257° |
| 2026-05-08 07:09 | 41.11024 | 57.39399 | 36121 ft | 376 kts | 257° |
| 2026-05-08 07:10 | 41.10248 | 57.32539 | 36113 ft | 376 kts | 257° |
| 2026-05-08 07:10 | 41.09468 | 57.25674 | 36112 ft | 376 kts | 257° |
| 2026-05-08 07:11 | 41.08685 | 57.18820 | 36114 ft | 376 kts | 257° |
| 2026-05-08 07:11 | 41.07903 | 57.12011 | 36115 ft | 376 kts | 257° |
| 2026-05-08 07:12 | 41.07112 | 57.05162 | 36115 ft | 376 kts | 257° |
| 2026-05-08 07:12 | 41.06316 | 56.98313 | 36128 ft | 376 kts | 257° |
| 2026-05-08 07:13 | 41.05516 | 56.91461 | 36130 ft | 376 kts | 256° |
| 2026-05-08 07:13 | 41.04712 | 56.84608 | 36121 ft | 377 kts | 256° |
| 2026-05-08 07:14 | 41.03902 | 56.77748 | 36118 ft | 377 kts | 256° |
| 2026-05-08 07:14 | 41.03088 | 56.70883 | 36125 ft | 377 kts | 256° |
| 2026-05-08 07:15 | 41.02270 | 56.64021 | 36120 ft | 377 kts | 256° |
| 2026-05-08 07:15 | 41.01446 | 56.57155 | 36125 ft | 379 kts | 256° |
| 2026-05-08 07:16 | 41.00744 | 56.50209 | 36124 ft | 384 kts | 261° |
| 2026-05-08 07:16 | 41.00565 | 56.43128 | 36124 ft | 385 kts | 262° |
| 2026-05-08 07:17 | 41.00485 | 56.36075 | 36122 ft | 386 kts | 263° |
| 2026-05-08 07:17 | 41.00415 | 56.28971 | 36127 ft | 386 kts | 263° |
| 2026-05-08 07:18 | 41.00332 | 56.21878 | 36124 ft | 385 kts | 263° |
| 2026-05-08 07:18 | 41.00237 | 56.14768 | 36125 ft | 386 kts | 263° |
| 2026-05-08 07:19 | 41.00136 | 56.07641 | 36126 ft | 387 kts | 263° |
| 2026-05-08 07:19 | 41.00032 | 56.00503 | 36126 ft | 388 kts | 263° |
| 2026-05-08 07:20 | 40.99923 | 55.93361 | 36136 ft | 389 kts | 263° |
| 2026-05-08 07:20 | 40.99806 | 55.86176 | 36128 ft | 391 kts | 263° |
| 2026-05-08 07:21 | 40.99689 | 55.79012 | 36131 ft | 392 kts | 262° |
| 2026-05-08 07:21 | 40.99573 | 55.71794 | 36127 ft | 392 kts | 263° |
| 2026-05-08 07:22 | 40.99482 | 55.65778 | 36128 ft | 392 kts | 263° |
| 2026-05-08 07:22 | 40.99367 | 55.58546 | 36129 ft | 393 kts | 263° |
| 2026-05-08 07:23 | 40.99247 | 55.51322 | 36131 ft | 393 kts | 262° |
| 2026-05-08 07:23 | 40.99120 | 55.44100 | 36132 ft | 393 kts | 262° |
| 2026-05-08 07:24 | 40.98990 | 55.36873 | 36133 ft | 393 kts | 262° |
| 2026-05-08 07:24 | 40.98851 | 55.29590 | 36137 ft | 398 kts | 263° |
| 2026-05-08 07:25 | 40.98707 | 55.22226 | 36134 ft | 401 kts | 263° |
| 2026-05-08 07:26 | 40.98489 | 55.11196 | 36136 ft | 401 kts | 263° |
| 2026-05-08 07:26 | 40.98335 | 55.03823 | 36141 ft | 401 kts | 263° |
| 2026-05-08 07:27 | 40.98175 | 54.96437 | 36137 ft | 402 kts | 263° |
| 2026-05-08 07:27 | 40.98010 | 54.89036 | 36141 ft | 403 kts | 263° |
| 2026-05-08 07:28 | 40.97842 | 54.81629 | 36145 ft | 402 kts | 262° |
| 2026-05-08 07:28 | 40.97658 | 54.74229 | 36149 ft | 402 kts | 262° |
| 2026-05-08 07:29 | 40.97467 | 54.66783 | 36148 ft | 406 kts | 263° |
| 2026-05-08 07:29 | 40.97272 | 54.59328 | 36146 ft | 408 kts | 262° |
| 2026-05-08 07:30 | 40.97075 | 54.51798 | 36146 ft | 409 kts | 262° |
| 2026-05-08 07:30 | 40.96874 | 54.44285 | 36152 ft | 409 kts | 262° |
| 2026-05-08 07:31 | 40.96666 | 54.36766 | 36146 ft | 408 kts | 262° |
| 2026-05-08 07:31 | 40.96453 | 54.29246 | 36144 ft | 408 kts | 262° |
| 2026-05-08 07:32 | 40.96235 | 54.21736 | 36145 ft | 408 kts | 262° |
| 2026-05-08 07:32 | 40.96012 | 54.14224 | 36154 ft | 408 kts | 262° |
| 2026-05-08 07:33 | 40.95786 | 54.06757 | 36157 ft | 410 kts | 262° |
| 2026-05-08 07:33 | 40.95550 | 53.99185 | 36151 ft | 412 kts | 262° |
| 2026-05-08 07:34 | 40.95311 | 53.91607 | 36152 ft | 412 kts | 262° |
| 2026-05-08 07:34 | 40.95068 | 53.84032 | 36153 ft | 412 kts | 262° |
| 2026-05-08 07:35 | 40.94819 | 53.76455 | 36156 ft | 413 kts | 262° |
| 2026-05-08 07:35 | 40.94563 | 53.68858 | 36155 ft | 413 kts | 262° |
| 2026-05-08 07:36 | 40.94303 | 53.61250 | 36154 ft | 413 kts | 262° |
| 2026-05-08 07:36 | 40.94039 | 53.53658 | 36149 ft | 413 kts | 262° |
| 2026-05-08 07:37 | 40.93770 | 53.46107 | 36144 ft | 413 kts | 262° |
| 2026-05-08 07:37 | 40.93495 | 53.38510 | 36144 ft | 414 kts | 262° |
| 2026-05-08 07:38 | 40.93215 | 53.30904 | 36160 ft | 414 kts | 262° |
| 2026-05-08 07:38 | 40.92929 | 53.23294 | 36156 ft | 414 kts | 262° |
| 2026-05-08 07:39 | 40.92639 | 53.15696 | 36156 ft | 414 kts | 262° |
| 2026-05-08 07:39 | 40.92346 | 53.08093 | 36157 ft | 414 kts | 262° |
| 2026-05-08 07:40 | 40.92038 | 53.00499 | 36155 ft | 414 kts | 261° |
| 2026-05-08 07:40 | 40.91720 | 52.92902 | 36154 ft | 414 kts | 261° |
| 2026-05-08 07:41 | 40.91401 | 52.85346 | 36163 ft | 414 kts | 262° |
| 2026-05-08 07:41 | 40.91077 | 52.77735 | 36157 ft | 415 kts | 262° |
| 2026-05-08 07:42 | 40.90748 | 52.70113 | 36156 ft | 415 kts | 261° |
| 2026-05-08 07:42 | 40.90395 | 52.62498 | 36158 ft | 414 kts | 259° |
| 2026-05-08 07:43 | 40.89456 | 52.55048 | 36157 ft | 410 kts | 255° |
| 2026-05-08 07:43 | 40.88320 | 52.47657 | 36156 ft | 410 kts | 254° |
| 2026-05-08 07:44 | 40.87144 | 52.40280 | 36159 ft | 410 kts | 254° |
| 2026-05-08 07:44 | 40.85976 | 52.32956 | 36159 ft | 410 kts | 254° |
| 2026-05-08 07:45 | 40.84804 | 52.25588 | 36161 ft | 409 kts | 254° |
| 2026-05-08 07:45 | 40.83633 | 52.18234 | 36164 ft | 409 kts | 254° |
| 2026-05-08 07:46 | 40.82457 | 52.10881 | 36164 ft | 409 kts | 254° |
| 2026-05-08 07:46 | 40.81276 | 52.03537 | 36162 ft | 409 kts | 254° |
| 2026-05-08 07:47 | 40.80092 | 51.96199 | 36166 ft | 409 kts | 253° |
| 2026-05-08 07:47 | 40.78912 | 51.88920 | 36167 ft | 408 kts | 253° |
| 2026-05-08 07:48 | 40.77718 | 51.81590 | 36167 ft | 408 kts | 253° |
| 2026-05-08 07:48 | 40.76520 | 51.74260 | 36167 ft | 408 kts | 253° |
| 2026-05-08 07:49 | 40.75318 | 51.66942 | 36167 ft | 408 kts | 253° |
| 2026-05-08 07:49 | 40.74112 | 51.59629 | 36168 ft | 408 kts | 253° |
| 2026-05-08 07:50 | 40.72909 | 51.52306 | 36257 ft | 409 kts | 255° |
| 2026-05-08 07:50 | 40.72524 | 51.48575 | 36421 ft | 412 kts | 260° |
| 2026-05-08 07:50 | 40.72303 | 51.44802 | 36588 ft | 413 kts | 261° |
| 2026-05-08 07:50 | 40.72125 | 51.41020 | 36755 ft | 413 kts | 261° |
| 2026-05-08 07:51 | 40.71971 | 51.37239 | 36911 ft | 414 kts | 262° |
| 2026-05-08 07:51 | 40.71826 | 51.33447 | 37058 ft | 414 kts | 262° |
| 2026-05-08 07:51 | 40.71683 | 51.29652 | 37207 ft | 414 kts | 262° |
| 2026-05-08 07:52 | 40.71383 | 51.22041 | 37224 ft | 422 kts | 262° |
| 2026-05-08 07:52 | 40.71226 | 51.18183 | 37383 ft | 422 kts | 262° |
| 2026-05-08 07:52 | 40.71067 | 51.14321 | 37538 ft | 422 kts | 262° |
| 2026-05-08 07:52 | 40.70906 | 51.10458 | 37676 ft | 422 kts | 262° |
| 2026-05-08 07:53 | 40.70743 | 51.06602 | 37803 ft | 422 kts | 262° |
| 2026-05-08 07:53 | 40.70579 | 51.02738 | 37926 ft | 423 kts | 262° |
| 2026-05-08 07:53 | 40.70412 | 50.98871 | 38055 ft | 423 kts | 262° |
| 2026-05-08 07:54 | 40.70074 | 50.91105 | 38158 ft | 425 kts | 262° |
| 2026-05-08 07:54 | 40.69732 | 50.83342 | 38159 ft | 423 kts | 262° |
| 2026-05-08 07:55 | 40.69385 | 50.75603 | 38154 ft | 423 kts | 262° |
| 2026-05-08 07:55 | 40.69032 | 50.67853 | 38162 ft | 424 kts | 262° |
| 2026-05-08 07:56 | 40.68671 | 50.60066 | 38150 ft | 427 kts | 262° |
| 2026-05-08 07:56 | 40.68308 | 50.52306 | 38148 ft | 427 kts | 262° |
| 2026-05-08 07:57 | 40.67938 | 50.44497 | 38143 ft | 427 kts | 262° |
| 2026-05-08 07:57 | 40.67563 | 50.36692 | 38138 ft | 427 kts | 262° |
| 2026-05-08 07:58 | 40.67179 | 50.28876 | 38141 ft | 427 kts | 262° |
| 2026-05-08 07:58 | 40.66790 | 50.21067 | 38132 ft | 427 kts | 262° |
| 2026-05-08 07:59 | 40.66396 | 50.13253 | 38132 ft | 427 kts | 262° |
| 2026-05-08 07:59 | 40.66006 | 50.05636 | 38137 ft | 428 kts | 262° |
| 2026-05-08 08:00 | 40.65600 | 49.97788 | 38134 ft | 430 kts | 262° |
| 2026-05-08 08:00 | 40.65189 | 49.89933 | 38137 ft | 430 kts | 262° |
| 2026-05-08 08:01 | 40.64773 | 49.82088 | 38144 ft | 430 kts | 262° |
| 2026-05-08 08:01 | 40.64351 | 49.74241 | 38144 ft | 430 kts | 262° |
| 2026-05-08 08:02 | 40.63924 | 49.66391 | 38149 ft | 429 kts | 262° |
| 2026-05-08 08:02 | 40.63491 | 49.58543 | 38154 ft | 429 kts | 262° |
| 2026-05-08 08:03 | 40.63053 | 49.50704 | 38161 ft | 429 kts | 262° |
| 2026-05-08 08:03 | 40.62612 | 49.42898 | 38150 ft | 431 kts | 262° |
| 2026-05-08 08:04 | 40.62162 | 49.35032 | 38160 ft | 431 kts | 262° |
| 2026-05-08 08:04 | 40.61707 | 49.27168 | 38154 ft | 431 kts | 262° |
| 2026-05-08 08:05 | 40.61245 | 49.19289 | 38154 ft | 432 kts | 262° |
| 2026-05-08 08:05 | 40.60977 | 49.11365 | 38164 ft | 433 kts | 265° |
| 2026-05-08 08:06 | 40.60893 | 49.03479 | 38163 ft | 433 kts | 265° |
| 2026-05-08 08:06 | 40.60788 | 48.95497 | 38188 ft | 434 kts | 265° |
| 2026-05-08 08:07 | 40.60640 | 48.87602 | 38177 ft | 435 kts | 264° |
| 2026-05-08 08:07 | 40.60471 | 48.79642 | 38179 ft | 435 kts | 264° |
| 2026-05-08 08:08 | 40.60325 | 48.73024 | 38184 ft | 435 kts | 264° |
| 2026-05-08 08:08 | 40.60145 | 48.65064 | 38190 ft | 435 kts | 264° |
| 2026-05-08 08:09 | 40.59963 | 48.57106 | 38187 ft | 435 kts | 264° |
| 2026-05-08 08:09 | 40.59772 | 48.49148 | 38189 ft | 435 kts | 264° |
| 2026-05-08 08:10 | 40.59575 | 48.41180 | 38195 ft | 436 kts | 264° |
| 2026-05-08 08:10 | 40.59375 | 48.33184 | 38196 ft | 438 kts | 264° |
| 2026-05-08 08:11 | 40.59168 | 48.25182 | 38195 ft | 438 kts | 264° |
| 2026-05-08 08:11 | 40.58958 | 48.17222 | 38193 ft | 438 kts | 264° |
| 2026-05-08 08:12 | 40.58745 | 48.09203 | 38191 ft | 438 kts | 264° |
| 2026-05-08 08:12 | 40.58516 | 48.01187 | 38196 ft | 439 kts | 264° |
| 2026-05-08 08:13 | 40.58292 | 47.93142 | 38199 ft | 441 kts | 265° |
| 2026-05-08 08:13 | 40.58480 | 47.85029 | 38197 ft | 446 kts | 269° |
| 2026-05-08 08:14 | 40.58860 | 47.76853 | 38196 ft | 448 kts | 269° |
| 2026-05-08 08:14 | 40.59189 | 47.68660 | 38195 ft | 448 kts | 269° |
| 2026-05-08 08:15 | 40.59458 | 47.60530 | 38197 ft | 448 kts | 268° |
| 2026-05-08 08:15 | 40.59704 | 47.52326 | 38187 ft | 449 kts | 268° |
| 2026-05-08 08:16 | 40.59944 | 47.44113 | 38186 ft | 449 kts | 268° |
| 2026-05-08 08:16 | 40.60182 | 47.35896 | 38183 ft | 449 kts | 268° |
| 2026-05-08 08:17 | 40.60414 | 47.27680 | 38185 ft | 449 kts | 268° |
| 2026-05-08 08:17 | 40.60663 | 47.19518 | 38184 ft | 450 kts | 271° |
| 2026-05-08 08:18 | 40.61386 | 47.11316 | 38181 ft | 452 kts | 274° |
| 2026-05-08 08:18 | 40.62221 | 47.03105 | 38198 ft | 453 kts | 274° |
| 2026-05-08 08:19 | 40.63074 | 46.94892 | 38182 ft | 453 kts | 274° |
| 2026-05-08 08:19 | 40.63916 | 46.86661 | 38172 ft | 453 kts | 274° |
| 2026-05-08 08:20 | 40.64746 | 46.78420 | 38179 ft | 453 kts | 274° |
| 2026-05-08 08:20 | 40.65569 | 46.70181 | 38180 ft | 453 kts | 274° |
| 2026-05-08 08:21 | 40.66380 | 46.61994 | 38185 ft | 453 kts | 274° |
| 2026-05-08 08:21 | 40.67191 | 46.53755 | 38184 ft | 454 kts | 274° |
| 2026-05-08 08:22 | 40.67997 | 46.45505 | 38185 ft | 454 kts | 274° |
| 2026-05-08 08:22 | 40.68797 | 46.37256 | 38184 ft | 454 kts | 274° |
| 2026-05-08 08:23 | 40.69591 | 46.29004 | 38182 ft | 454 kts | 274° |
| 2026-05-08 08:23 | 40.70379 | 46.20751 | 38185 ft | 455 kts | 275° |
| 2026-05-08 08:24 | 40.71160 | 46.12510 | 38181 ft | 456 kts | 274° |
| 2026-05-08 08:24 | 40.71941 | 46.04203 | 38180 ft | 456 kts | 274° |
| 2026-05-08 08:25 | 40.72714 | 45.95911 | 38187 ft | 456 kts | 274° |
| 2026-05-08 08:25 | 40.73482 | 45.87621 | 38179 ft | 456 kts | 274° |
| 2026-05-08 08:26 | 40.74246 | 45.79308 | 38188 ft | 457 kts | 274° |
| 2026-05-08 08:26 | 40.75003 | 45.70988 | 38179 ft | 457 kts | 274° |
| 2026-05-08 08:27 | 40.75751 | 45.62707 | 38182 ft | 457 kts | 274° |
| 2026-05-08 08:27 | 40.76498 | 45.54373 | 38181 ft | 457 kts | 274° |
| 2026-05-08 08:28 | 40.77192 | 45.46038 | 38196 ft | 457 kts | 273° |
| 2026-05-08 08:28 | 40.77565 | 45.37670 | 38179 ft | 457 kts | 271° |
| 2026-05-08 08:29 | 40.77869 | 45.29287 | 38189 ft | 457 kts | 271° |
| 2026-05-08 08:29 | 40.78210 | 45.20912 | 38179 ft | 457 kts | 271° |